Time;durP1;ratioP1;P1;durP2;ratioP2;P2;SDS_P1;SDS_P2;PMS_P1;PMS_P2;Temp;Humidity;BMP_temperature;BMP_pressure;BME280_temperature;BME280_humidity;BME280_pressure;Samples;Min_cycle;Max_cycle;Signal;HPM_P1;HPM_P2
2022/08/15 00:01:36;;;;;;;27.60;19.50;;;;;;;;;;771663;182;616146;-63
2022/08/15 00:04:00;;;;;;;22.30;16.57;;;;;;;;;;765453;181;628723;-63
2022/08/15 00:06:26;;;;;;;29.70;19.23;;;;;;;;;;765772;181;635951;-58
2022/08/15 00:08:52;;;;;;;28.80;18.83;;;;;;;;;;762053;183;623520;-62
2022/08/15 00:11:18;;;;;;;26.17;17.10;;;;;;;;;;755401;186;616341;-64
2022/08/15 00:13:44;;;;;;;21.80;15.87;;;;;;;;;;758748;185;627160;-59
2022/08/15 00:16:09;;;;;;;19.50;15.17;;;;;;;;;;758476;183;619556;-59
2022/08/15 00:18:35;;;;;;;21.07;15.13;;;;;;;;;;757015;184;617062;-64
2022/08/15 00:21:01;;;;;;;23.87;17.93;;;;;;;;;;758069;183;623678;-62
2022/08/15 00:23:27;;;;;;;39.93;26.00;;;;;;;;;;763738;183;621638;-62
2022/08/15 00:25:53;;;;;;;48.00;27.50;;;;;;;;;;757545;183;626672;-61
2022/08/15 00:28:18;;;;;;;52.40;29.43;;;;;;;;;;755447;183;619489;-58
2022/08/15 00:30:44;;;;;;;53.03;31.17;;;;;;;;;;758363;183;617012;-63
2022/08/15 00:33:10;;;;;;;51.03;31.30;;;;;;;;;;762425;183;623938;-60
2022/08/15 00:35:36;;;;;;;51.20;30.00;;;;;;;;;;755956;185;632030;-63
2022/08/15 00:38:03;;;;;;;58.30;31.33;;;;;;;;;;755924;185;624457;-59
2022/08/15 00:40:28;;;;;;;56.90;31.80;;;;;;;;;;757670;184;632435;-62
2022/08/15 00:42:54;;;;;;;62.00;32.03;;;;;;;;;;759457;183;628899;-62
2022/08/15 00:45:20;;;;;;;42.33;27.03;;;;;;;;;;759859;183;630345;-59
2022/08/15 00:48:41;;;;;;;41.43;26.53;;;;;;;;;;760170;183;618726;-58
2022/08/15 00:50:12;;;;;;;38.67;23.60;;;;;;;;;;753719;184;616216;-58
2022/08/15 00:52:38;;;;;;;39.87;25.77;;;;;;;;;;755232;184;635241;-62
2022/08/15 00:55:04;;;;;;;36.97;23.83;;;;;;;;;;753931;185;633135;-61
2022/08/15 00:57:30;;;;;;;42.20;24.90;;;;;;;;;;758493;186;627075;-63
2022/08/15 00:59:57;;;;;;;38.77;26.37;;;;;;;;;;754085;184;621469;-61
2022/08/15 01:02:22;;;;;;;39.47;26.43;;;;;;;;;;756600;183;626716;-58
2022/08/15 01:04:48;;;;;;;41.40;24.43;;;;;;;;;;757638;184;619748;-58
2022/08/15 01:07:14;;;;;;;40.03;24.23;;;;;;;;;;757514;183;626926;-62
2022/08/15 01:09:40;;;;;;;36.70;24.13;;;;;;;;;;756115;184;646538;-58
2022/08/15 01:12:10;;;;;;;41.17;23.63;;;;;;;;;;761236;183;633514;-58
2022/08/15 01:14:34;;;;;;;32.93;20.30;;;;;;;;;;765431;183;639041;-61
2022/08/15 01:17:00;;;;;;;30.10;21.70;;;;;;;;;;761672;183;627526;-62
2022/08/15 01:19:30;;;;;;;33.17;21.80;;;;;;;;;;756376;183;627825;-62
2022/08/15 01:22:08;;;;;;;34.40;22.10;;;;;;;;;;756997;185;625916;-58
2022/08/15 01:24:37;;;;;;;30.20;21.00;;;;;;;;;;763684;183;623147;-58
2022/08/15 01:27:03;;;;;;;33.73;22.13;;;;;;;;;;754510;184;623612;-58
2022/08/15 01:29:29;;;;;;;39.23;22.97;;;;;;;;;;755947;183;617573;-58
2022/08/15 01:31:55;;;;;;;36.80;23.47;;;;;;;;;;760449;183;619939;-58
2022/08/15 01:34:20;;;;;;;37.77;24.53;;;;;;;;;;757078;183;624876;-63
2022/08/15 01:36:47;;;;;;;50.13;27.60;;;;;;;;;;756443;183;627706;-65
2022/08/15 01:39:17;;;;;;;45.57;27.77;;;;;;;;;;758431;185;620113;-58
2022/08/15 01:41:46;;;;;;;60.23;28.83;;;;;;;;;;759390;183;622855;-61
2022/08/15 01:44:30;;;;;;;57.37;28.47;;;;;;;;;;760102;184;625365;-58
2022/08/15 01:46:56;;;;;;;80.13;26.77;;;;;;;;;;765169;182;639065;-58
2022/08/15 01:49:23;;;;;;;58.73;28.40;;;;;;;;;;760678;180;617328;-58
2022/08/15 01:51:49;;;;;;;52.03;27.30;;;;;;;;;;755582;183;625993;-62
2022/08/15 01:54:15;;;;;;;48.87;28.77;;;;;;;;;;755340;182;622861;-58
2022/08/15 01:56:41;;;;;;;45.57;25.60;;;;;;;;;;755436;184;627917;-58
2022/08/15 01:59:07;;;;;;;45.13;28.50;;;;;;;;;;756486;185;628654;-58
2022/08/15 02:01:38;;;;;;;46.73;28.97;;;;;;;;;;763343;184;628594;-60
2022/08/15 02:04:05;;;;;;;51.77;28.00;;;;;;;;;;774694;180;631430;-60
2022/08/15 02:06:30;;;;;;;43.40;26.00;;;;;;;;;;760206;183;613662;-58
2022/08/15 02:08:56;;;;;;;49.57;27.40;;;;;;;;;;758213;183;641933;-60
2022/08/15 02:11:22;;;;;;;46.77;28.37;;;;;;;;;;771068;180;624641;-58
2022/08/15 02:13:48;;;;;;;46.53;28.33;;;;;;;;;;760915;183;628816;-60
2022/08/15 02:16:13;;;;;;;36.70;25.00;;;;;;;;;;753753;185;642336;-61
2022/08/15 02:18:39;;;;;;;39.30;24.37;;;;;;;;;;761230;183;620997;-57
2022/08/15 02:21:05;;;;;;;42.97;25.47;;;;;;;;;;756390;183;631744;-61
2022/08/15 02:23:31;;;;;;;38.60;23.73;;;;;;;;;;754570;184;628672;-59
2022/08/15 02:25:57;;;;;;;41.93;24.50;;;;;;;;;;758628;183;635138;-58
2022/08/15 02:28:23;;;;;;;41.90;24.43;;;;;;;;;;753478;184;633153;-60
2022/08/15 02:30:48;;;;;;;41.20;24.27;;;;;;;;;;755861;183;630833;-60
2022/08/15 02:33:14;;;;;;;48.80;26.20;;;;;;;;;;759098;185;626245;-57
2022/08/15 02:35:40;;;;;;;47.13;27.57;;;;;;;;;;753459;184;633249;-61
2022/08/15 02:38:06;;;;;;;44.90;27.53;;;;;;;;;;755888;183;635172;-57
2022/08/15 02:40:33;;;;;;;52.03;31.00;;;;;;;;;;754274;183;624503;-60
2022/08/15 02:43:01;;;;;;;50.93;30.20;;;;;;;;;;760614;183;630008;-57
2022/08/15 02:45:26;;;;;;;50.33;29.20;;;;;;;;;;758134;182;620694;-57
2022/08/15 02:47:53;;;;;;;51.20;30.53;;;;;;;;;;757105;183;631929;-59
2022/08/15 02:50:22;;;;;;;49.03;28.27;;;;;;;;;;761212;183;630092;-59
2022/08/15 02:52:44;;;;;;;48.93;29.67;;;;;;;;;;754589;184;626559;-59
2022/08/15 02:55:10;;;;;;;51.60;28.60;;;;;;;;;;755767;183;626761;-60
2022/08/15 02:57:36;;;;;;;47.67;27.17;;;;;;;;;;756123;185;631062;-60
2022/08/15 03:00:03;;;;;;;45.13;26.70;;;;;;;;;;774396;179;614690;-60
2022/08/15 03:02:28;;;;;;;39.60;25.60;;;;;;;;;;760990;183;618138;-59
2022/08/15 03:04:53;;;;;;;38.90;24.97;;;;;;;;;;757087;183;619586;-60
2022/08/15 03:07:19;;;;;;;40.40;24.97;;;;;;;;;;760280;183;624380;-57
2022/08/15 03:09:45;;;;;;;37.70;23.90;;;;;;;;;;755213;184;631753;-59
2022/08/15 03:12:12;;;;;;;43.53;24.40;;;;;;;;;;754138;184;619079;-58
2022/08/15 03:14:38;;;;;;;42.43;25.23;;;;;;;;;;772187;180;637311;-60
2022/08/15 03:17:03;;;;;;;41.50;25.37;;;;;;;;;;757483;183;627839;-57
2022/08/15 03:19:29;;;;;;;37.53;23.90;;;;;;;;;;758942;183;634803;-59
2022/08/15 03:21:55;;;;;;;38.93;23.87;;;;;;;;;;756888;183;628541;-59
2022/08/15 03:24:22;;;;;;;44.27;24.50;;;;;;;;;;766006;180;749511;-59
2022/08/15 03:26:47;;;;;;;40.20;23.13;;;;;;;;;;756920;183;627078;-60
2022/08/15 03:29:15;;;;;;;37.80;24.00;;;;;;;;;;756118;184;614122;-59
2022/08/15 03:31:39;;;;;;;37.00;23.47;;;;;;;;;;764856;183;614370;-58
2022/08/15 03:34:04;;;;;;;39.20;23.47;;;;;;;;;;753811;183;619217;-58
2022/08/15 03:36:30;;;;;;;38.10;21.93;;;;;;;;;;754627;185;619880;-60
2022/08/15 03:38:56;;;;;;;40.20;22.27;;;;;;;;;;758680;185;629337;-59
2022/08/15 03:41:22;;;;;;;36.83;22.70;;;;;;;;;;755135;184;634371;-57
2022/08/15 03:43:48;;;;;;;41.20;24.10;;;;;;;;;;752116;184;626325;-60
2022/08/15 03:46:16;;;;;;;34.10;23.30;;;;;;;;;;755687;186;627210;-57
2022/08/15 03:48:40;;;;;;;32.27;21.70;;;;;;;;;;738402;188;633269;-57
2022/08/15 03:51:05;;;;;;;37.97;22.67;;;;;;;;;;756943;183;629511;-59
2022/08/15 03:53:31;;;;;;;31.80;21.80;;;;;;;;;;756792;183;637189;-60
2022/08/15 03:55:57;;;;;;;38.47;21.80;;;;;;;;;;761107;183;616830;-58
2022/08/15 03:58:23;;;;;;;31.60;21.53;;;;;;;;;;755818;183;634840;-60
2022/08/15 04:00:49;;;;;;;34.00;21.77;;;;;;;;;;767103;183;633169;-57
2022/08/15 04:03:15;;;;;;;34.80;22.90;;;;;;;;;;763846;183;619826;-57
2022/08/15 04:05:40;;;;;;;35.07;21.67;;;;;;;;;;761431;183;616725;-57
2022/08/15 04:08:07;;;;;;;30.73;21.27;;;;;;;;;;764218;180;622905;-57
2022/08/15 04:10:32;;;;;;;33.17;21.60;;;;;;;;;;757450;183;643167;-59
2022/08/15 04:12:58;;;;;;;33.33;21.80;;;;;;;;;;763197;183;627114;-59
2022/08/15 04:15:24;;;;;;;37.10;22.87;;;;;;;;;;758712;183;624304;-59
2022/08/15 04:17:52;;;;;;;33.53;22.37;;;;;;;;;;758056;183;624710;-58
2022/08/15 04:20:16;;;;;;;34.93;22.17;;;;;;;;;;759762;184;629206;-58
2022/08/15 04:22:41;;;;;;;37.20;22.77;;;;;;;;;;764767;183;618057;-58
2022/08/15 04:25:09;;;;;;;53.60;22.17;;;;;;;;;;755320;184;633152;-58
2022/08/15 04:27:33;;;;;;;38.37;21.90;;;;;;;;;;760903;183;637781;-57
2022/08/15 04:29:59;;;;;;;33.37;22.43;;;;;;;;;;754522;183;633178;-59
2022/08/15 04:32:25;;;;;;;41.33;22.80;;;;;;;;;;755891;184;633665;-59
2022/08/15 04:34:51;;;;;;;34.13;22.60;;;;;;;;;;757738;186;636796;-57
2022/08/15 04:37:17;;;;;;;41.00;22.10;;;;;;;;;;757446;184;635989;-59
2022/08/15 04:39:43;;;;;;;35.47;22.30;;;;;;;;;;756218;183;618063;-61
2022/08/15 04:42:08;;;;;;;37.33;22.53;;;;;;;;;;756270;184;635056;-58
2022/08/15 04:44:35;;;;;;;36.73;23.47;;;;;;;;;;755470;185;627372;-61
2022/08/15 04:47:01;;;;;;;34.67;22.90;;;;;;;;;;754629;183;626719;-57
2022/08/15 04:49:27;;;;;;;30.57;22.47;;;;;;;;;;753952;183;629136;-57
2022/08/15 04:51:53;;;;;;;38.03;23.03;;;;;;;;;;759167;183;626999;-60
2022/08/15 04:54:18;;;;;;;39.90;22.70;;;;;;;;;;753025;183;617358;-58
2022/08/15 04:56:45;;;;;;;43.83;26.70;;;;;;;;;;752876;183;627318;-60
2022/08/15 04:59:10;;;;;;;37.30;22.50;;;;;;;;;;760657;184;621414;-58
2022/08/15 05:01:36;;;;;;;37.00;23.93;;;;;;;;;;755761;183;634166;-58
2022/08/15 05:04:02;;;;;;;34.73;22.57;;;;;;;;;;756936;185;621632;-59
2022/08/15 05:06:28;;;;;;;34.83;23.40;;;;;;;;;;755685;183;614751;-60
2022/08/15 05:08:54;;;;;;;34.07;23.63;;;;;;;;;;762905;182;608728;-58
2022/08/15 05:11:19;;;;;;;34.80;22.50;;;;;;;;;;757558;183;627789;-59
2022/08/15 05:13:45;;;;;;;32.13;21.70;;;;;;;;;;755467;185;616547;-58
2022/08/15 05:16:11;;;;;;;37.70;24.70;;;;;;;;;;759643;185;619051;-60
2022/08/15 05:18:37;;;;;;;37.57;26.00;;;;;;;;;;755498;185;624661;-57
2022/08/15 05:21:05;;;;;;;33.20;22.43;;;;;;;;;;755920;183;618609;-58
2022/08/15 05:23:31;;;;;;;33.47;24.27;;;;;;;;;;761617;183;617095;-61
2022/08/15 05:25:56;;;;;;;31.13;25.43;;;;;;;;;;760791;183;627082;-58
2022/08/15 05:28:22;;;;;;;32.83;24.80;;;;;;;;;;759566;185;623288;-61
2022/08/15 05:30:48;;;;;;;33.50;22.87;;;;;;;;;;760745;185;627655;-58
2022/08/15 05:33:14;;;;;;;29.60;21.50;;;;;;;;;;762282;181;630581;-58
2022/08/15 05:35:42;;;;;;;28.57;21.27;;;;;;;;;;764183;183;632975;-60
2022/08/15 05:38:08;;;;;;;29.83;21.53;;;;;;;;;;755906;183;633314;-58
2022/08/15 05:40:37;;;;;;;30.63;19.03;;;;;;;;;;761499;183;617308;-60
2022/08/15 05:43:08;;;;;;;26.43;18.80;;;;;;;;;;756140;183;630127;-58
2022/08/15 05:45:33;;;;;;;25.00;17.67;;;;;;;;;;754119;183;623636;-58
2022/08/15 05:47:59;;;;;;;27.97;20.77;;;;;;;;;;755420;183;632706;-61
2022/08/15 05:50:27;;;;;;;30.30;20.37;;;;;;;;;;760494;183;614481;-62
2022/08/15 05:52:58;;;;;;;26.90;19.60;;;;;;;;;;755928;183;629113;-58
2022/08/15 05:55:42;;;;;;;26.20;18.03;;;;;;;;;;756758;184;631367;-58
2022/08/15 05:58:14;;;;;;;26.30;17.50;;;;;;;;;;756009;184;648297;-59
2022/08/15 06:00:40;;;;;;;25.40;17.70;;;;;;;;;;754715;186;639227;-61
2022/08/15 06:03:08;;;;;;;21.00;16.40;;;;;;;;;;757455;183;634364;-62
2022/08/15 06:05:32;;;;;;;22.30;16.83;;;;;;;;;;754853;183;629539;-61
2022/08/15 06:07:59;;;;;;;18.47;15.03;;;;;;;;;;753784;184;621428;-58
2022/08/15 06:10:27;;;;;;;20.23;15.87;;;;;;;;;;759982;183;629259;-61
2022/08/15 06:12:53;;;;;;;25.90;22.17;;;;;;;;;;761137;183;635898;-62
2022/08/15 06:15:21;;;;;;;33.77;26.73;;;;;;;;;;753853;184;623506;-62
2022/08/15 06:17:48;;;;;;;20.93;15.33;;;;;;;;;;757525;183;619635;-62
2022/08/15 06:20:13;;;;;;;19.50;16.00;;;;;;;;;;761704;183;620577;-64
2022/08/15 06:22:39;;;;;;;21.37;18.80;;;;;;;;;;762486;183;624834;-59
2022/08/15 06:25:17;;;;;;;18.90;14.53;;;;;;;;;;762183;183;631359;-63
2022/08/15 06:27:58;;;;;;;25.00;19.37;;;;;;;;;;755921;185;631221;-62
2022/08/15 06:30:26;;;;;;;17.93;13.80;;;;;;;;;;745427;186;620705;-58
2022/08/15 06:32:54;;;;;;;34.40;22.27;;;;;;;;;;750897;185;611204;-62
2022/08/15 06:35:37;;;;;;;24.50;18.60;;;;;;;;;;756297;183;630245;-59
2022/08/15 06:38:09;;;;;;;33.77;26.40;;;;;;;;;;751990;186;616923;-62
2022/08/15 06:40:52;;;;;;;26.30;14.10;;;;;;;;;;765359;180;617190;-63
2022/08/15 06:43:18;;;;;;;28.53;21.50;;;;;;;;;;755334;183;637007;-63
2022/08/15 06:45:44;;;;;;;16.10;13.60;;;;;;;;;;754140;184;624200;-59
2022/08/15 06:48:10;;;;;;;19.60;11.73;;;;;;;;;;759271;183;627389;-63
2022/08/15 06:50:37;;;;;;;13.50;11.73;;;;;;;;;;753928;183;623638;-59
2022/08/15 06:53:06;;;;;;;14.20;10.60;;;;;;;;;;752796;184;636128;-63
2022/08/15 06:55:32;;;;;;;14.13;11.30;;;;;;;;;;756918;183;623279;-60
2022/08/15 06:57:58;;;;;;;12.47;10.57;;;;;;;;;;753743;184;639469;-62
2022/08/15 07:00:26;;;;;;;15.07;12.23;;;;;;;;;;751399;184;631122;-60
2022/08/15 07:03:09;;;;;;;15.10;11.40;;;;;;;;;;753476;184;616082;-60
2022/08/15 07:05:40;;;;;;;13.87;11.80;;;;;;;;;;752549;183;628932;-65
2022/08/15 07:08:03;;;;;;;13.60;9.70;;;;;;;;;;757238;183;635917;-63
2022/08/15 07:10:34;;;;;;;13.03;10.80;;;;;;;;;;755730;183;630826;-60
2022/08/15 07:13:02;;;;;;;16.60;11.00;;;;;;;;;;757463;183;634776;-64
2022/08/15 07:15:36;;;;;;;16.07;10.33;;;;;;;;;;755762;184;627182;-62
2022/08/15 07:17:57;;;;;;;12.10;10.40;;;;;;;;;;757422;183;625806;-60
2022/08/15 07:20:23;;;;;;;13.67;10.80;;;;;;;;;;754008;183;629069;-60
2022/08/15 07:22:48;;;;;;;17.07;12.63;;;;;;;;;;754655;185;630975;-65
2022/08/15 07:25:14;;;;;;;15.00;11.23;;;;;;;;;;760038;183;618412;-59
2022/08/15 07:27:40;;;;;;;15.60;11.57;;;;;;;;;;757901;183;619028;-60
2022/08/15 07:30:07;;;;;;;14.67;11.63;;;;;;;;;;757836;184;628621;-60
2022/08/15 07:32:38;;;;;;;13.20;11.37;;;;;;;;;;757930;183;625983;-65
2022/08/15 07:35:16;;;;;;;17.57;10.77;;;;;;;;;;762539;183;622169;-63
2022/08/15 07:37:58;;;;;;;10.20;9.10;;;;;;;;;;754804;186;633558;-61
2022/08/15 07:40:22;;;;;;;13.13;10.00;;;;;;;;;;758806;180;614522;-64
2022/08/15 07:42:48;;;;;;;13.37;10.90;;;;;;;;;;755748;183;630074;-64
2022/08/15 07:45:15;;;;;;;10.57;9.47;;;;;;;;;;756734;183;620682;-60
2022/08/15 07:47:41;;;;;;;12.27;9.60;;;;;;;;;;755451;184;627726;-65
2022/08/15 07:50:08;;;;;;;13.30;10.20;;;;;;;;;;753364;183;625040;-62
2022/08/15 07:52:34;;;;;;;12.37;10.30;;;;;;;;;;751408;183;616952;-61
2022/08/15 07:55:05;;;;;;;10.37;9.17;;;;;;;;;;758178;183;618857;-61
2022/08/15 07:57:32;;;;;;;14.57;10.50;;;;;;;;;;757108;181;630564;-61
2022/08/15 08:00:13;;;;;;;10.80;9.27;;;;;;;;;;753537;185;638983;-61
2022/08/15 08:02:41;;;;;;;13.80;10.97;;;;;;;;;;757512;183;639589;-63
2022/08/15 08:05:07;;;;;;;13.17;10.80;;;;;;;;;;756748;183;629651;-66
2022/08/15 08:07:35;;;;;;;12.20;10.10;;;;;;;;;;759183;183;631857;-61
2022/08/15 08:10:01;;;;;;;12.87;10.33;;;;;;;;;;755945;183;645877;-64
2022/08/15 08:12:27;;;;;;;12.33;9.33;;;;;;;;;;752231;183;623128;-61
2022/08/15 08:15:02;;;;;;;11.83;10.63;;;;;;;;;;758510;183;619438;-64
2022/08/15 08:17:31;;;;;;;11.93;10.70;;;;;;;;;;760067;183;628071;-61
2022/08/15 08:20:11;;;;;;;15.20;10.47;;;;;;;;;;748454;187;633863;-65
2022/08/15 08:22:52;;;;;;;10.93;9.70;;;;;;;;;;749554;183;616895;-65
2022/08/15 08:25:24;;;;;;;13.40;10.70;;;;;;;;;;767279;181;617138;-65
2022/08/15 08:27:51;;;;;;;10.70;9.60;;;;;;;;;;762522;183;655075;-63
2022/08/15 08:30:18;;;;;;;12.70;9.10;;;;;;;;;;755984;183;631123;-64
2022/08/15 08:32:46;;;;;;;11.07;8.97;;;;;;;;;;757553;183;626123;-65
2022/08/15 08:35:17;;;;;;;11.37;9.87;;;;;;;;;;763393;183;631906;-61
2022/08/15 08:37:43;;;;;;;12.67;9.97;;;;;;;;;;770606;180;636932;-65
2022/08/15 08:42:52;;;;;;;11.30;9.03;;;;;;;;;;777748;179;633456;-61
2022/08/15 08:45:19;;;;;;;11.47;9.43;;;;;;;;;;758602;183;626767;-67
2022/08/15 08:48:05;;;;;;;11.47;9.53;;;;;;;;;;761587;183;623092;-61
2022/08/15 08:50:36;;;;;;;10.60;9.40;;;;;;;;;;760384;183;627991;-61
2022/08/15 08:53:12;;;;;;;11.03;9.87;;;;;;;;;;759825;183;619892;-61
2022/08/15 08:55:40;;;;;;;12.60;9.77;;;;;;;;;;770740;176;627772;-61
2022/08/15 08:58:06;;;;;;;12.17;9.93;;;;;;;;;;756269;183;624928;-62
2022/08/15 09:00:36;;;;;;;11.17;7.73;;;;;;;;;;761200;183;634221;-61
2022/08/15 09:03:02;;;;;;;9.17;8.23;;;;;;;;;;760931;183;620790;-65
2022/08/15 09:05:28;;;;;;;11.30;9.83;;;;;;;;;;752383;183;617993;-61
2022/08/15 09:07:55;;;;;;;11.10;9.90;;;;;;;;;;758218;183;634833;-61
2022/08/15 09:10:21;;;;;;;13.83;10.40;;;;;;;;;;753691;183;638599;-61
2022/08/15 09:15:19;;;;;;;13.13;9.60;;;;;;;;;;755256;183;631480;-65
2022/08/15 09:17:44;;;;;;;11.73;9.20;;;;;;;;;;760065;183;617449;-61
2022/08/15 09:20:11;;;;;;;14.50;10.47;;;;;;;;;;755936;183;627862;-65
2022/08/15 09:22:37;;;;;;;12.97;9.47;;;;;;;;;;754802;184;619264;-66
2022/08/15 09:25:03;;;;;;;9.27;8.27;;;;;;;;;;760374;183;613171;-66
2022/08/15 09:27:30;;;;;;;12.57;10.43;;;;;;;;;;755183;183;623877;-61
2022/08/15 09:29:56;;;;;;;11.83;9.60;;;;;;;;;;756473;183;624997;-61
2022/08/15 09:32:42;;;;;;;11.03;9.17;;;;;;;;;;755322;183;643919;-62
2022/08/15 09:35:12;;;;;;;11.00;9.03;;;;;;;;;;769414;176;633693;-65
2022/08/15 09:37:38;;;;;;;11.43;9.47;;;;;;;;;;758011;183;641557;-65
2022/08/15 09:40:10;;;;;;;9.53;8.53;;;;;;;;;;753685;184;634043;-61
2022/08/15 09:42:35;;;;;;;10.70;8.40;;;;;;;;;;752186;186;625158;-63
2022/08/15 09:45:11;;;;;;;12.80;8.83;;;;;;;;;;753359;184;630644;-61
2022/08/15 09:47:39;;;;;;;10.40;8.30;;;;;;;;;;758426;183;638075;-66
2022/08/15 09:50:05;;;;;;;11.00;9.20;;;;;;;;;;743577;189;629270;-61
2022/08/15 09:52:35;;;;;;;15.33;9.17;;;;;;;;;;757528;183;617179;-64
2022/08/15 09:54:59;;;;;;;13.03;10.27;;;;;;;;;;756222;183;625339;-62
2022/08/15 09:57:37;;;;;;;12.77;8.80;;;;;;;;;;754502;185;624777;-61
2022/08/15 10:00:06;;;;;;;11.87;10.17;;;;;;;;;;746900;189;620000;-61
2022/08/15 10:02:32;;;;;;;11.53;9.13;;;;;;;;;;747959;186;632631;-64
2022/08/15 10:05:08;;;;;;;13.20;9.43;;;;;;;;;;756331;184;624623;-61
2022/08/15 10:07:48;;;;;;;11.13;9.47;;;;;;;;;;755894;183;627841;-64
2022/08/15 10:10:19;;;;;;;11.27;9.40;;;;;;;;;;755216;184;626932;-61
2022/08/15 10:13:05;;;;;;;12.60;8.60;;;;;;;;;;757939;185;629226;-61
2022/08/15 10:15:35;;;;;;;10.90;9.03;;;;;;;;;;750172;187;632475;-64
2022/08/15 10:18:00;;;;;;;11.07;8.70;;;;;;;;;;757121;183;636143;-60
2022/08/15 10:20:41;;;;;;;11.90;9.30;;;;;;;;;;755504;184;626963;-64
2022/08/15 10:23:08;;;;;;;12.10;8.50;;;;;;;;;;755497;183;620114;-64
2022/08/15 10:25:36;;;;;;;11.47;9.70;;;;;;;;;;756100;183;637454;-64
2022/08/15 10:28:05;;;;;;;10.50;8.60;;;;;;;;;;759532;183;631994;-60
2022/08/15 10:30:30;;;;;;;11.40;9.50;;;;;;;;;;756777;183;619061;-62
2022/08/15 10:32:56;;;;;;;9.87;8.67;;;;;;;;;;755470;183;639281;-61
2022/08/15 10:35:23;;;;;;;9.40;8.40;;;;;;;;;;758203;185;627013;-61
2022/08/15 10:37:53;;;;;;;11.30;8.57;;;;;;;;;;753709;183;628331;-64
2022/08/15 10:40:20;;;;;;;12.03;8.60;;;;;;;;;;759911;183;642828;-64
2022/08/15 10:42:46;;;;;;;14.63;8.90;;;;;;;;;;753318;184;622488;-64
2022/08/15 10:45:12;;;;;;;10.83;8.00;;;;;;;;;;760841;183;616516;-64
2022/08/15 10:47:47;;;;;;;10.40;9.30;;;;;;;;;;757079;183;636025;-60
2022/08/15 10:50:12;;;;;;;9.87;8.50;;;;;;;;;;756642;183;632277;-60
2022/08/15 10:52:39;;;;;;;10.67;8.33;;;;;;;;;;756802;183;629144;-60
2022/08/15 10:55:06;;;;;;;11.87;8.40;;;;;;;;;;756086;184;623583;-65
2022/08/15 10:57:34;;;;;;;12.63;8.83;;;;;;;;;;752049;185;630989;-60
2022/08/15 10:59:58;;;;;;;9.30;8.40;;;;;;;;;;754608;185;632457;-60
2022/08/15 11:02:24;;;;;;;10.13;8.27;;;;;;;;;;761357;183;632824;-60
2022/08/15 11:04:50;;;;;;;14.47;9.03;;;;;;;;;;758212;183;626399;-63
2022/08/15 11:07:16;;;;;;;9.50;8.50;;;;;;;;;;765670;183;645045;-60
2022/08/15 11:09:41;;;;;;;8.07;7.27;;;;;;;;;;759137;183;637641;-63
2022/08/15 11:12:08;;;;;;;11.40;8.60;;;;;;;;;;763008;183;617453;-60
2022/08/15 11:14:37;;;;;;;10.87;8.77;;;;;;;;;;762170;183;615979;-60
2022/08/15 11:17:00;;;;;;;10.40;8.50;;;;;;;;;;756020;183;626706;-64
2022/08/15 11:19:29;;;;;;;14.93;7.80;;;;;;;;;;759727;183;613906;-60
2022/08/15 11:21:55;;;;;;;10.33;8.97;;;;;;;;;;755569;183;620172;-63
2022/08/15 11:24:23;;;;;;;12.40;7.97;;;;;;;;;;754809;183;637231;-64
2022/08/15 11:26:49;;;;;;;10.23;8.13;;;;;;;;;;755630;184;622457;-61
2022/08/15 11:29:15;;;;;;;10.60;8.70;;;;;;;;;;745295;189;616316;-65
2022/08/15 11:31:41;;;;;;;10.93;8.20;;;;;;;;;;739896;187;636129;-64
2022/08/15 11:34:07;;;;;;;11.50;8.80;;;;;;;;;;745177;187;620940;-63
2022/08/15 11:36:33;;;;;;;10.67;7.70;;;;;;;;;;751913;184;617004;-60
2022/08/15 11:38:59;;;;;;;15.10;8.40;;;;;;;;;;757011;183;631911;-64
2022/08/15 11:41:27;;;;;;;9.10;7.73;;;;;;;;;;758413;184;635203;-65
2022/08/15 11:43:51;;;;;;;9.17;7.70;;;;;;;;;;760586;183;629034;-64
2022/08/15 11:46:18;;;;;;;9.27;7.53;;;;;;;;;;754581;183;632551;-60
2022/08/15 11:48:44;;;;;;;11.37;8.50;;;;;;;;;;759694;183;627584;-59
2022/08/15 11:51:10;;;;;;;13.00;7.90;;;;;;;;;;755843;183;626642;-61
2022/08/15 11:53:36;;;;;;;9.00;7.33;;;;;;;;;;746820;185;618886;-64
2022/08/15 11:56:02;;;;;;;7.90;7.10;;;;;;;;;;755724;183;619938;-63
2022/08/15 11:58:28;;;;;;;10.30;7.57;;;;;;;;;;740735;187;619798;-64
2022/08/15 12:00:55;;;;;;;8.40;7.23;;;;;;;;;;746415;187;624869;-63
2022/08/15 12:03:21;;;;;;;9.03;7.90;;;;;;;;;;750596;184;633077;-60
2022/08/15 12:05:47;;;;;;;12.70;7.10;;;;;;;;;;753858;184;620881;-60
2022/08/15 12:08:12;;;;;;;9.20;7.70;;;;;;;;;;758183;185;628407;-64
2022/08/15 12:10:39;;;;;;;10.10;7.70;;;;;;;;;;754836;183;629119;-62
2022/08/15 12:13:04;;;;;;;8.40;6.47;;;;;;;;;;754831;184;628189;-63
2022/08/15 12:15:39;;;;;;;8.83;7.40;;;;;;;;;;756417;183;629734;-60
2022/08/15 12:18:22;;;;;;;8.50;7.00;;;;;;;;;;774255;182;618430;-60
2022/08/15 12:20:47;;;;;;;7.40;6.13;;;;;;;;;;750661;185;633044;-63
2022/08/15 12:23:20;;;;;;;9.43;6.13;;;;;;;;;;761746;183;623511;-60
2022/08/15 12:25:49;;;;;;;9.40;6.77;;;;;;;;;;759356;183;627453;-60
2022/08/15 12:28:15;;;;;;;8.17;6.23;;;;;;;;;;752325;183;613022;-63
2022/08/15 12:30:41;;;;;;;9.90;7.00;;;;;;;;;;761013;183;627144;-59
2022/08/15 12:33:08;;;;;;;10.03;6.67;;;;;;;;;;760844;183;627162;-60
2022/08/15 12:35:33;;;;;;;8.23;6.87;;;;;;;;;;753825;183;639600;-60
2022/08/15 12:37:58;;;;;;;7.57;6.80;;;;;;;;;;760940;183;615070;-62
2022/08/15 12:40:24;;;;;;;7.30;6.60;;;;;;;;;;758673;183;630197;-59
2022/08/15 12:42:50;;;;;;;10.00;6.60;;;;;;;;;;758008;183;626947;-63
2022/08/15 12:45:18;;;;;;;9.73;6.73;;;;;;;;;;757881;183;618999;-63
2022/08/15 12:47:42;;;;;;;8.37;7.43;;;;;;;;;;758591;185;623683;-62
2022/08/15 12:50:08;;;;;;;7.53;6.43;;;;;;;;;;754109;184;622434;-62
2022/08/15 12:52:34;;;;;;;9.50;7.30;;;;;;;;;;755708;183;628556;-63
2022/08/15 12:54:59;;;;;;;6.50;5.70;;;;;;;;;;759645;183;616746;-62
2022/08/15 12:57:25;;;;;;;7.80;6.73;;;;;;;;;;753983;183;627046;-62
2022/08/15 12:59:51;;;;;;;9.17;7.97;;;;;;;;;;753888;183;625324;-60
2022/08/15 13:02:17;;;;;;;6.90;6.20;;;;;;;;;;758420;183;652034;-62
2022/08/15 13:04:43;;;;;;;8.00;7.20;;;;;;;;;;755908;184;629479;-60
2022/08/15 13:07:09;;;;;;;9.33;6.67;;;;;;;;;;755412;184;627536;-60
2022/08/15 13:09:34;;;;;;;6.97;6.27;;;;;;;;;;755305;184;624725;-59
2022/08/15 13:12:01;;;;;;;7.37;6.60;;;;;;;;;;761259;182;631085;-59
2022/08/15 13:14:27;;;;;;;7.67;6.50;;;;;;;;;;764251;183;636774;-61
2022/08/15 13:16:54;;;;;;;9.80;7.57;;;;;;;;;;758507;183;636442;-60
2022/08/15 13:19:20;;;;;;;7.63;6.83;;;;;;;;;;758202;183;620294;-60
2022/08/15 13:24:17;;;;;;;8.50;6.70;;;;;;;;;;753117;183;618470;-59
2022/08/15 13:26:43;;;;;;;7.33;6.50;;;;;;;;;;755796;183;629871;-61
2022/08/15 13:29:09;;;;;;;7.27;6.30;;;;;;;;;;761825;181;621982;-59
2022/08/15 13:31:36;;;;;;;10.80;7.43;;;;;;;;;;757623;183;627823;-62
2022/08/15 13:34:00;;;;;;;8.50;6.43;;;;;;;;;;758930;183;629039;-61
2022/08/15 13:36:28;;;;;;;7.93;7.13;;;;;;;;;;761216;183;625856;-62
2022/08/15 13:38:52;;;;;;;9.70;6.53;;;;;;;;;;759024;183;629272;-61
2022/08/15 13:41:18;;;;;;;7.47;6.30;;;;;;;;;;758951;183;623768;-60
2022/08/15 13:43:44;;;;;;;7.63;6.37;;;;;;;;;;759974;183;617085;-60
2022/08/15 13:46:10;;;;;;;9.20;6.40;;;;;;;;;;755566;183;619299;-60
2022/08/15 13:48:36;;;;;;;9.03;6.53;;;;;;;;;;754718;185;635391;-62
2022/08/15 13:51:01;;;;;;;7.00;6.30;;;;;;;;;;755651;183;622682;-60
2022/08/15 13:53:28;;;;;;;9.00;6.47;;;;;;;;;;751627;185;634146;-60
2022/08/15 13:55:53;;;;;;;6.63;5.97;;;;;;;;;;741196;187;618270;-62
2022/08/15 13:58:19;;;;;;;8.27;7.07;;;;;;;;;;741617;187;672037;-62
2022/08/15 14:00:45;;;;;;;7.57;6.53;;;;;;;;;;756493;184;618526;-60
2022/08/15 14:03:12;;;;;;;8.93;6.20;;;;;;;;;;755496;183;634945;-60
2022/08/15 14:05:37;;;;;;;8.70;7.30;;;;;;;;;;752214;185;623234;-63
2022/08/15 14:08:03;;;;;;;6.80;5.93;;;;;;;;;;758809;185;619010;-62
2022/08/15 14:10:28;;;;;;;8.70;6.20;;;;;;;;;;756926;184;635326;-59
2022/08/15 14:12:54;;;;;;;8.97;6.60;;;;;;;;;;758328;183;656108;-62
2022/08/15 14:15:21;;;;;;;6.93;6.22;;;;;;;;;;759293;183;633763;-62
2022/08/15 14:17:47;;;;;;;8.30;6.30;;;;;;;;;;756190;182;627230;-60
2022/08/15 14:20:12;;;;;;;7.17;6.27;;;;;;;;;;764159;180;610150;-59